KCOS/COS METAR and TAF weather

Enter ICAO airport designator
Station Type Date Time Source
KCOS METAR 2019/08/19 01:54 UTC NOAA

KCOS 190154Z 13011KT 10SM BKN160 27/02 A3009 RMK AO2 SLP089 T02720017


Station Type Date Time Source
KCOS Decoded METAR 2019/08/19 01:54 UTC NOAA

Station name not available
Aug 18, 2019 - 09:54 PM EDT / 2019.08.19 0154 UTC
Wind: from the SE (130 degrees) at 13 MPH (11 KT):0
Visibility: 10 mile(s):0
Sky conditions: mostly cloudy
Temperature: 81.0 F (27.2 C)
Dew Point: 35.1 F (1.7 C)
Relative Humidity: 19%
Pressure (altimeter): 30.09 in. Hg (1018 hPa)
ob: KCOS 190154Z 13011KT 10SM BKN160 27/02 A3009 RMK AO2 SLP089 T02720017
cycle: 2

Station Type Date Time Source
KCOS TAF 2019/08/18 18:24 UTC NOAA

TAF KCOS 181722Z 1818/1918 15010G20KT P6SM FEW110
FM190300 VRB06KT P6SM FEW110

Example: see airport list